Boudicca — C6VA3 — position and weather

sailwx.info

Track history (hours):
 
Tides and Currents Weather Stations Pressure Air Temp Water Temp Dewpoint Dewpoint Depression Visibility Wind Speed Wind Dir Waves Ship Positions

Boudicca

Last reported at 2018-Jul-22 23:35 UTC. Time now 2018-Jul-23 00:26 UTC.
Position N 56°30' E 011°58'.

Length 205 m; draft 7.5 m.

Type: Passenger vessel. MMSI: 309964000.

Date/timePositionNaut miles runAvg speedWind from/ knotsBaromVisibWave heightAir tempDewpointWater temp
2018-Jul-22 23:35N 56°30' E 011°58'213.9
2018-Jul-22 23:28N 56°32' E 011°57'713.9
2018-Jul-22 22:58N 56°39' E 011°54'714.1
2018-Jul-22 22:30N 56°45' E 011°51'713.6
2018-Jul-22 21:59N 56°52' E 011°47'713.7
2018-Jul-22 21:30N 56°58' E 011°43'713.5
2018-Jul-22 21:00N 57°04' E 011°38'713.6
2018-Jul-22 20:30N 57°11' E 011°34'713.4
2018-Jul-22 20:00N 57°17' E 011°30'713.3
2018-Jul-22 19:30N 57°23' E 011°26'713.5
2018-Jul-22 19:00N 57°30' E 011°24'713.8
2018-Jul-22 18:31N 57°37' E 011°24'713.9
2018-Jul-22 18:00N 57°44' E 011°24'816.2
2018-Jul-22 17:30N 57°52' E 011°28'511.0
2018-Jul-22 17:00N 57°55' E 011°36'511.0
2018-Jul-22 16:30N 57°59' E 011°44'510.7
2018-Jul-22 16:00N 58°04' E 011°47'1010.3
2018-Jul-22 15:00N 58°14' E 011°51'5 4.3
2018-Jul-22 13:44N 58°19' E 011°49'510.1
2018-Jul-22 13:13N 58°14' E 011°51'312.1
2018-Jul-22 13:00N 58°11' E 011°51'510.2
2018-Jul-22 12:30N 58°07' E 011°49'5 9.2
2018-Jul-22 12:00N 58°02' E 011°47'612.2
2018-Jul-22 11:30N 57°57' E 011°42'611.9
2018-Jul-22 11:01N 57°54' E 011°32'713.1
2018-Jul-22 10:31N 57°49' E 011°23'612.9
2018-Jul-22 10:00N 57°54' E 011°16'714.3
2018-Jul-22 09:30N 58°01' E 011°11'714.0
2018-Jul-22 09:00N 58°07' E 011°06'612.2
2018-Jul-22 08:30N 58°13' E 011°10'5 9.3
2018-Jul-22 08:00N 58°15' E 011°18'611.7
2018-Jul-22 07:29N 58°17' E 011°29'1 0.7
2018-Jul-22 05:57N 58°16' E 011°28'511.3
2018-Jul-22 05:30N 58°15' E 011°18'612.5
2018-Jul-22 05:00N 58°13' E 011°07'714.6
2018-Jul-22 04:30N 58°10' E 010°55'714.9
2018-Jul-22 04:00N 58°06' E 010°43'1715.5
2018-Jul-22 02:53N 57°57' E 010°15'9413.9
2018-Jul-21 20:09N 56°59' E 007°57'212.5
2018-Jul-21 19:59N 56°58' E 007°55'712.3
2018-Jul-21 19:27N 56°52' E 007°48'712.5
2018-Jul-21 18:52N 56°46' E 007°41'612.7
2018-Jul-21 18:23N 56°41' E 007°35'512.9
2018-Jul-21 18:00N 56°37' E 007°30'1012.7
2018-Jul-21 17:15N 56°29' E 007°21'412.9
2018-Jul-21 16:58N 56°25' E 007°18'812.7
2018-Jul-21 16:21N 56°19' E 007°10'512.7
2018-Jul-21 15:57N 56°14' E 007°05'612.8
2018-Jul-21 15:30N 56°10' E 006°60'2012.9
2018-Jul-21 13:58N 55°53' E 006°41'11514.9
2018-Jul-21 06:16N 54°15' E 004°54'416.6
2018-Jul-21 06:00N 54°12' E 004°50'916.5
2018-Jul-21 05:28N 54°04' E 004°42'816.4
2018-Jul-21 04:59N 53°57' E 004°36'816.2
2018-Jul-21 04:30N 53°51' E 004°28'816.2
2018-Jul-21 04:00N 53°45' E 004°18'816.3
2018-Jul-21 03:30N 53°40' E 004°07'816.5
2018-Jul-21 03:00N 53°35' E 003°56'816.5
2018-Jul-21 02:30N 53°30' E 003°46'816.2
2018-Jul-21 02:00N 53°22' E 003°40'816.1
2018-Jul-21 01:30N 53°15' E 003°35'816.3
2018-Jul-21 01:00N 53°08' E 003°29'816.4
2018-Jul-21 00:30N 53°00' E 003°24'816.7
2018-Jul-21 00:00N 52°53' E 003°17'816.8
2018-Jul-20 23:30N 52°45' E 003°11'917.1
2018-Jul-20 23:00N 52°37' E 003°06'917.4
2018-Jul-20 22:30N 52°29' E 002°59'917.6
2018-Jul-20 22:00N 52°22' E 002°52'917.9
2018-Jul-20 21:30N 52°15' E 002°43'918.1
2018-Jul-20 21:00N 52°07' E 002°34'918.2
2018-Jul-20 20:30N 51°60' E 002°26'918.2
2018-Jul-20 20:00N 51°53' E 002°17'918.2
2018-Jul-20 19:31N 51°46' E 002°08'918.3
2018-Jul-20 19:00N 51°38' E 001°60'918.0
2018-Jul-20 18:30N 51°31' E 001°52'917.7
2018-Jul-20 18:01N 51°23' E 001°45'917.7
2018-Jul-20 17:30N 51°15' E 001°40'917.3
2018-Jul-20 17:00N 51°09' E 001°30'612.3
2018-Jul-20 16:30N 51°07' E 001°20'1 1.1
2018-Jul-20 15:54N 51°07' E 001°19'0 0.0
2018-Jul-20 15:30N 51°07' E 001°19'0 0.0
2018-Jul-20 14:57N 51°07' E 001°19'0 0.0
2018-Jul-20 14:27N 51°07' E 001°19'0 0.0
2018-Jul-20 13:57N 51°07' E 001°19'0 0.0
2018-Jul-20 13:27N 51°07' E 001°19'0 0.0
2018-Jul-20 12:48N 51°07' E 001°19'0 0.0
2018-Jul-20 12:27N 51°07' E 001°19'0 0.0
2018-Jul-20 12:00N 51°07' E 001°19'0 0.0
2018-Jul-20 11:30N 51°07' E 001°19'0 0.0
2018-Jul-20 11:00N 51°07' E 001°19'0 0.0
2018-Jul-20 10:30N 51°07' E 001°19'0 0.0
2018-Jul-20 09:48N 51°07' E 001°19'0 0.0
2018-Jul-20 09:27N 51°07' E 001°19'0 0.0
2018-Jul-20 09:00N 51°07' E 001°19'0 0.0
2018-Jul-20 08:30N 51°07' E 001°19'0 0.0
2018-Jul-20 08:00N 51°07' E 001°19'0 0.0
2018-Jul-20 07:27N 51°07' E 001°19'0 0.0
2018-Jul-20 06:52N 51°07' E 001°19'0 0.0
2018-Jul-20 06:30N 51°07' E 001°19'0 0.0
2018-Jul-20 06:00N 51°07' E 001°19'4 8.1
2018-Jul-20 05:31N 51°08' E 001°25'5 9.3
2018-Jul-20 05:01N 51°09' E 001°32'510.9
2018-Jul-20 04:31N 51°14' E 001°36'510.4
2018-Jul-20 04:01N 51°19' E 001°40'611.1
2018-Jul-20 03:31N 51°24' E 001°44'611.8
2018-Jul-20 03:00N 51°29' E 001°49'713.3
2018-Jul-20 02:31N 51°35' E 001°54'612.0
2018-Jul-20 02:01N 51°40' E 001°59'612.8
2018-Jul-20 01:31N 51°45' E 002°05'714.9
2018-Jul-20 01:01N 51°52' E 002°09'714.6
2018-Jul-20 00:30N 51°59' E 002°11'714.1
2018-Jul-20 00:01N 52°06' E 002°13'713.4
2018-Jul-19 23:30N 52°13' E 002°14'713.2
2018-Jul-19 23:00N 52°20' E 002°16'612.5
2018-Jul-19 22:30N 52°26' E 002°17'612.1
2018-Jul-19 22:00N 52°32' E 002°18'612.0
2018-Jul-19 21:30N 52°38' E 002°20'611.6
2018-Jul-19 21:00N 52°44' E 002°21'611.2
2018-Jul-19 20:30N 52°49' E 002°22'611.1
2018-Jul-19 20:00N 52°55' E 002°24'611.2
2018-Jul-19 19:30N 53°00' E 002°25'611.3
2018-Jul-19 19:01N 53°06' E 002°26'611.4
2018-Jul-19 18:31N 53°11' E 002°27'611.6
2018-Jul-19 18:01N 53°17' E 002°27'612.0
2018-Jul-19 17:30N 53°23' E 002°29'612.3
2018-Jul-19 17:00N 53°29' E 002°30'812.8
2018-Jul-19 16:22N 53°37' E 002°33'512.8
2018-Jul-19 16:00N 53°42' E 002°34'813.2
2018-Jul-19 15:25N 53°49' E 002°36'813.1
2018-Jul-19 14:49N 53°57' E 002°37'1713.0
2018-Jul-19 13:30N 54°14' E 002°42'34016.8
2018-Jul-18 17:18N 59°48' E 004°37'517.9
2018-Jul-18 16:59N 59°53' E 004°41'917.6
2018-Jul-18 16:29N 60°02' E 004°48'816.7
2018-Jul-18 16:00N 60°08' E 004°58'612.6
2018-Jul-18 15:30N 60°10' E 005°09'815.6
2018-Jul-18 15:00N 60°18' E 005°12'611.1
2018-Jul-18 14:29N 60°24' E 005°14'3 2.6
2018-Jul-18 13:30N 60°24' E 005°19'0 0.0
2018-Jul-18 13:00N 60°24' E 005°19'0 0.0
2018-Jul-18 12:30N 60°24' E 005°19'0 0.0
2018-Jul-18 12:00N 60°24' E 005°19'0 0.0
2018-Jul-18 11:30N 60°24' E 005°19'0 0.0
2018-Jul-18 10:30N 60°24' E 005°19'0 0.0
2018-Jul-18 10:00N 60°24' E 005°19'0 0.0
2018-Jul-18 09:30N 60°24' E 005°19'0 0.0
2018-Jul-18 09:00N 60°24' E 005°19'0 0.0
2018-Jul-18 08:30N 60°24' E 005°19'0 0.0
2018-Jul-18 08:00N 60°24' E 005°19'0 0.0
2018-Jul-18 07:30N 60°24' E 005°19'0 0.0
2018-Jul-18 07:00N 60°24' E 005°19'0 0.0
2018-Jul-18 06:30N 60°24' E 005°19'0 0.0
2018-Jul-18 05:57N 60°24' E 005°19'0 0.0
2018-Jul-18 05:30N 60°24' E 005°19'0 0.5
2018-Jul-18 05:00N 60°24' E 005°18'4 8.6
2018-Jul-18 04:30N 60°23' E 005°10'611.6
2018-Jul-18 04:00N 60°27' E 005°01'612.5
2018-Jul-18 03:30N 60°33' E 004°56'612.5
2018-Jul-18 02:59N 60°39' E 004°51'612.5
2018-Jul-18 02:30N 60°44' E 004°44'612.4
2018-Jul-18 02:00N 60°45' E 004°32'612.0
2018-Jul-18 01:30N 60°45' E 004°19'8 5.3
2018-Jul-18 00:01N 60°52' E 004°16'012.6
2018-Jul-18 00:00N 60°52' E 004°17'612.1
2018-Jul-17 23:30N 60°52' E 004°29'816.5
2018-Jul-17 23:00N 60°57' E 004°42'816.8
2018-Jul-17 22:30N 61°02' E 004°56'816.5
2018-Jul-17 22:00N 61°06' E 005°11'816.7
2018-Jul-17 21:30N 61°05' E 005°29'917.5
2018-Jul-17 21:00N 61°08' E 005°45'917.6
2018-Jul-17 20:30N 61°08' E 006°04'917.7
2018-Jul-17 20:00N 61°06' E 006°22'815.5
2018-Jul-17 19:30N 61°10' E 006°36'816.3
2018-Jul-17 19:00N 61°09' E 006°52'816.7
2018-Jul-17 18:30N 61°02' E 007°02'713.3
2018-Jul-17 18:00N 60°56' E 006°54'3 6.9
2018-Jul-17 17:30N 60°53' E 006°51'0 1.0
2018-Jul-17 17:00N 60°54' E 006°52'4 7.3
2018-Jul-17 16:30N 60°57' E 006°56'5 9.4
2018-Jul-17 16:00N 60°58' E 007°05'4 9.0
2018-Jul-17 15:30N 60°54' E 007°10'1 1.6
2018-Jul-17 15:00N 60°54' E 007°09'2 4.1
2018-Jul-17 14:30N 60°52' E 007°08'0 0.4
2018-Jul-17 14:00N 60°52' E 007°08'0 0.1
2018-Jul-17 13:30N 60°52' E 007°08'0 0.1
2018-Jul-17 13:00N 60°52' E 007°08'0 0.0
2018-Jul-17 12:30N 60°52' E 007°08'0 0.1
2018-Jul-17 12:00N 60°52' E 007°08'0 0.0
2018-Jul-17 11:30N 60°52' E 007°08'0 0.0
2018-Jul-17 11:00N 60°52' E 007°08'0 0.0
2018-Jul-17 10:30N 60°52' E 007°08'0 0.0
2018-Jul-17 10:00N 60°52' E 007°08'0 0.0
2018-Jul-17 09:30N 60°52' E 007°08'0 0.0
2018-Jul-17 09:00N 60°52' E 007°08'0 0.0
2018-Jul-17 08:30N 60°52' E 007°08'0 0.0
2018-Jul-17 08:00N 60°52' E 007°08'0 0.0
2018-Jul-17 07:30N 60°52' E 007°08'0 0.0
2018-Jul-17 07:00N 60°52' E 007°08'0 0.0
2018-Jul-17 06:30N 60°52' E 007°08'0 0.0
2018-Jul-17 06:00N 60°52' E 007°08'0 0.0
2018-Jul-17 05:30N 60°52' E 007°08'0 0.0
2018-Jul-17 05:00N 60°52' E 007°08'0 0.6
2018-Jul-17 04:30N 60°52' E 007°08'5 9.2
2018-Jul-17 04:00N 60°57' E 007°08'612.5
2018-Jul-17 03:30N 61°02' E 007°02'714.1
2018-Jul-17 02:58N 61°08' E 006°53'714.4
2018-Jul-17 02:29N 61°11' E 006°39'613.3
2018-Jul-17 02:00N 61°07' E 006°29'714.2
2018-Jul-17 01:30N 61°07' E 006°15'714.7
2018-Jul-17 01:00N 61°08' E 005°60'815.5
2018-Jul-17 00:29N 61°07' E 005°43'1515.0
2018-Jul-16 23:30N 61°05' E 005°13'815.5
2018-Jul-16 23:00N 61°03' E 004°58'816.7
2018-Jul-16 22:30N 60°58' E 004°44'714.5
2018-Jul-16 22:00N 60°51' E 004°38'612.3
2018-Jul-16 21:30N 60°46' E 004°31'816.0
2018-Jul-16 21:00N 60°38' E 004°33'917.3
2018-Jul-16 20:30N 60°30' E 004°37'918.0
2018-Jul-16 20:00N 60°21' E 004°42'917.8
2018-Jul-16 19:30N 60°13' E 004°48'714.0
2018-Jul-16 18:59N 60°09' E 004°59'511.1
2018-Jul-16 18:30N 60°10' E 005°10'814.5
2018-Jul-16 17:59N 60°05' E 005°19'816.6
2018-Jul-16 17:30N 59°57' E 005°26'816.7
2018-Jul-16 17:00N 59°50' E 005°33'611.9
2018-Jul-16 16:30N 59°54' E 005°42'917.0
2018-Jul-16 16:00N 59°60' E 005°53'817.0
2018-Jul-16 15:30N 60°06' E 006°05'2 4.6
2018-Jul-16 15:00N 60°06' E 006°10'511.0
2018-Jul-16 14:30N 60°04' E 006°00'5 1.0
2018-Jul-16 09:36N 59°59' E 005°60'0 0.0
2018-Jul-16 09:06N 59°59' E 005°60'0 0.0
2018-Jul-16 07:39N 59°59' E 005°60'0 0.0
2018-Jul-16 07:24N 59°59' E 005°60'0 0.0
2018-Jul-16 05:20N 59°59' E 005°60'0 0.4
2018-Jul-16 04:46N 59°59' E 005°60'0 0.1
2018-Jul-16 04:30N 59°59' E 006°00'0 0.8
2018-Jul-16 04:00N 59°59' E 005°59'3 5.6
2018-Jul-16 03:30N 59°59' E 005°54'510.8
2018-Jul-16 03:00N 59°56' E 005°46'611.3
2018-Jul-16 02:30N 59°51' E 005°39'510.8
2018-Jul-16 01:59N 59°46' E 005°33'510.9
2018-Jul-16 01:30N 59°42' E 005°26'510.3
2018-Jul-16 01:00N 59°38' E 005°19'510.5
2018-Jul-16 00:30N 59°34' E 005°14'510.4
2018-Jul-16 00:00N 59°29' E 005°10'611.3
2018-Jul-15 23:30N 59°31' E 004°59'4 9.0
2018-Jul-15 23:00N 59°33' E 004°52'4 7.2
2018-Jul-15 22:30N 59°34' E 004°45'4 7.4
2018-Jul-15 21:59N 59°30' E 004°42'5 9.5
2018-Jul-15 21:26N 59°25' E 004°44'4 9.0
2018-Jul-15 21:00N 59°25' E 004°52'510.2
2018-Jul-15 20:30N 59°27' E 005°01'510.6
2018-Jul-15 20:00N 59°27' E 005°11'5 9.9
2018-Jul-15 19:30N 59°23' E 005°18'510.8
2018-Jul-15 19:00N 59°18' E 005°20'816.9
2018-Jul-15 18:30N 59°09' E 005°21'612.5
2018-Jul-15 18:01N 59°09' E 005°34'713.7
2018-Jul-15 17:30N 59°08' E 005°47'714.1
2018-Jul-15 17:00N 59°14' E 005°55'713.5
2018-Jul-15 16:30N 59°19' E 006°03'611.6
2018-Jul-15 16:00N 59°20' E 006°14'0 0.3
2018-Jul-15 15:30N 59°20' E 006°14'3 5.4
2018-Jul-15 15:00N 59°19' E 006°10'2 4.9
2018-Jul-15 14:30N 59°18' E 006°06'713.6
2018-Jul-15 14:01N 59°18' E 006°19'711.8
2018-Jul-15 13:25N 59°19' E 006°32'1 2.3
2018-Jul-15 12:57N 59°19' E 006°30'612.6
2018-Jul-15 12:30N 59°18' E 006°20'713.6
2018-Jul-15 12:01N 59°15' E 006°07'0 0.6
2018-Jul-15 11:30N 59°15' E 006°07'0 0.2
2018-Jul-15 11:00N 59°15' E 006°07'4 8.4
2018-Jul-15 10:30N 59°13' E 005°60'612.0
2018-Jul-15 10:00N 59°09' E 005°53'917.2
2018-Jul-15 09:30N 59°00' E 005°52'815.7
2018-Jul-15 09:00N 58°54' E 006°02'511.0
2018-Jul-15 08:30N 58°58' E 006°10'816.1
2018-Jul-15 08:01N 59°01' E 006°25'714.3
2018-Jul-15 07:30N 59°03' E 006°38'3 5.1
2018-Jul-15 07:00N 59°02' E 006°33'815.5
2018-Jul-15 06:30N 59°01' E 006°19'510.3
2018-Jul-15 06:00N 58°58' E 006°10'510.9
2018-Jul-15 05:30N 58°54' E 006°04'510.8
2018-Jul-15 05:00N 58°58' E 005°57'815.1
2018-Jul-15 04:30N 59°02' E 005°45'612.6
2018-Jul-15 04:00N 59°02' E 005°32'815.3
2018-Jul-15 03:30N 58°55' E 005°32'510.4
2018-Jul-15 03:00N 58°50' E 005°28'4 7.3
2018-Jul-15 02:31N 58°48' E 005°23'510.6
2018-Jul-15 02:00N 58°43' E 005°18'611.4
2018-Jul-15 01:30N 58°37' E 005°16'611.4
2018-Jul-15 01:00N 58°32' E 005°13'611.6
2018-Jul-15 00:31N 58°26' E 005°10'1912.0
2018-Jul-14 22:55N 58°08' E 005°00'31013.9
2018-Jul-14 00:35N 53°09' E 002°31'117.5
2018-Jul-14 00:30N 53°08' E 002°31'917.3
2018-Jul-14 00:00N 52°59' E 002°28'816.9
2018-Jul-13 23:30N 52°51' E 002°27'1016.3
2018-Jul-13 22:55N 52°42' E 002°27'614.7
2018-Jul-13 22:30N 52°36' E 002°25'815.0
2018-Jul-13 21:59N 52°29' E 002°20'714.8
2018-Jul-13 21:30N 52°22' E 002°17'714.6
2018-Jul-13 21:00N 52°14' E 002°16'714.7
2018-Jul-13 20:30N 52°07' E 002°14'714.7
2018-Jul-13 20:00N 51°60' E 002°12'915.1
2018-Jul-13 19:26N 51°51' E 002°09'715.2
2018-Jul-13 19:00N 51°45' E 002°06'815.6
2018-Jul-13 18:30N 51°39' E 001°59'816.1
2018-Jul-13 18:00N 51°32' E 001°52'816.9
2018-Jul-13 17:30N 51°25' E 001°45'816.6
2018-Jul-13 17:00N 51°17' E 001°38'815.6
2018-Jul-13 16:30N 51°10' E 001°33'815.6
2018-Jul-13 15:59N 51°06' E 001°22'2 3.3
2018-Jul-13 15:30N 51°07' E 001°19'0 0.0
2018-Jul-13 15:00N 51°07' E 001°19'0 0.0
2018-Jul-13 13:57N 51°07' E 001°19'0 0.0
2018-Jul-13 13:30N 51°07' E 001°19'0 0.0
2018-Jul-13 13:00N 51°07' E 001°19'0 0.0
2018-Jul-13 12:30N 51°07' E 001°19'0 0.0
2018-Jul-13 12:00N 51°07' E 001°19'0 0.0
2018-Jul-13 11:24N 51°07' E 001°19'0 0.0
2018-Jul-13 10:54N 51°07' E 001°19'0 0.0
2018-Jul-13 10:27N 51°07' E 001°19'0 0.0
2018-Jul-13 09:57N 51°07' E 001°19'0 0.0
2018-Jul-13 09:21N 51°07' E 001°19'0 0.0
2018-Jul-13 08:57N 51°07' E 001°19'0 0.0
2018-Jul-13 08:27N 51°07' E 001°19'0 0.0
2018-Jul-13 07:57N 51°07' E 001°19'0 0.0
2018-Jul-13 07:30N 51°07' E 001°19'0 0.0
2018-Jul-13 07:00N 51°07' E 001°19'0 0.0
2018-Jul-13 06:30N 51°07' E 001°19'0 0.0
2018-Jul-13 05:57N 51°07' E 001°19'0 0.0
2018-Jul-13 05:27N 51°07' E 001°19'0 0.0
2018-Jul-13 05:00N 51°07' E 001°19'3 6.3
2018-Jul-13 04:30N 51°08' E 001°24'5 9.7
2018-Jul-13 04:00N 51°08' E 001°32'4 8.7
2018-Jul-13 03:30N 51°10' E 001°38'4 8.9
2018-Jul-13 03:00N 51°13' E 001°43'4 8.6
2018-Jul-13 02:30N 51°17' E 001°47'4 8.1
2018-Jul-13 02:00N 51°20' E 001°50'4 7.8
2018-Jul-13 01:31N 51°24' E 001°53'4 7.7
2018-Jul-13 01:00N 51°27' E 001°57'4 8.1
2018-Jul-13 00:30N 51°30' E 002°01'4 8.3
2018-Jul-13 00:00N 51°33' E 002°05'  
Track history (hours):
 
Tides and Currents Weather Stations Pressure Air Temp Water Temp Dewpoint Dewpoint Depression Visibility Wind Speed Wind Dir Waves Ship Positions

Boudicca

Last reported at 2018-Jul-22 23:35 UTC. Time now 2018-Jul-23 00:26 UTC.
Position N 56°30' E 011°58'.

Length 205 m; draft 7.5 m.

Type: Passenger vessel. MMSI: 309964000.

Date/timePositionNaut miles runAvg speedWind from/ knotsBaromVisibWave heightAir tempDewpointWater temp
2018-Jul-22 23:35N 56°30' E 011°58'213.9
2018-Jul-22 23:28N 56°32' E 011°57'713.9
2018-Jul-22 22:58N 56°39' E 011°54'714.1
2018-Jul-22 22:30N 56°45' E 011°51'713.6
2018-Jul-22 21:59N 56°52' E 011°47'713.7
2018-Jul-22 21:30N 56°58' E 011°43'713.5
2018-Jul-22 21:00N 57°04' E 011°38'713.6
2018-Jul-22 20:30N 57°11' E 011°34'713.4
2018-Jul-22 20:00N 57°17' E 011°30'713.3
2018-Jul-22 19:30N 57°23' E 011°26'713.5
2018-Jul-22 19:00N 57°30' E 011°24'713.8
2018-Jul-22 18:31N 57°37' E 011°24'713.9
2018-Jul-22 18:00N 57°44' E 011°24'816.2
2018-Jul-22 17:30N 57°52' E 011°28'511.0
2018-Jul-22 17:00N 57°55' E 011°36'511.0
2018-Jul-22 16:30N 57°59' E 011°44'510.7
2018-Jul-22 16:00N 58°04' E 011°47'1010.3
2018-Jul-22 15:00N 58°14' E 011°51'5 4.3
2018-Jul-22 13:44N 58°19' E 011°49'510.1
2018-Jul-22 13:13N 58°14' E 011°51'312.1
2018-Jul-22 13:00N 58°11' E 011°51'510.2
2018-Jul-22 12:30N 58°07' E 011°49'5 9.2
2018-Jul-22 12:00N 58°02' E 011°47'612.2
2018-Jul-22 11:30N 57°57' E 011°42'611.9
2018-Jul-22 11:01N 57°54' E 011°32'713.1
2018-Jul-22 10:31N 57°49' E 011°23'612.9
2018-Jul-22 10:00N 57°54' E 011°16'714.3
2018-Jul-22 09:30N 58°01' E 011°11'714.0
2018-Jul-22 09:00N 58°07' E 011°06'612.2
2018-Jul-22 08:30N 58°13' E 011°10'5 9.3
2018-Jul-22 08:00N 58°15' E 011°18'611.7
2018-Jul-22 07:29N 58°17' E 011°29'1 0.7
2018-Jul-22 05:57N 58°16' E 011°28'511.3
2018-Jul-22 05:30N 58°15' E 011°18'612.5
2018-Jul-22 05:00N 58°13' E 011°07'714.6
2018-Jul-22 04:30N 58°10' E 010°55'714.9
2018-Jul-22 04:00N 58°06' E 010°43'1715.5
2018-Jul-22 02:53N 57°57' E 010°15'9413.9
2018-Jul-21 20:09N 56°59' E 007°57'212.5
2018-Jul-21 19:59N 56°58' E 007°55'712.3
2018-Jul-21 19:27N 56°52' E 007°48'712.5
2018-Jul-21 18:52N 56°46' E 007°41'612.7
2018-Jul-21 18:23N 56°41' E 007°35'512.9
2018-Jul-21 18:00N 56°37' E 007°30'1012.7
2018-Jul-21 17:15N 56°29' E 007°21'412.9
2018-Jul-21 16:58N 56°25' E 007°18'812.7
2018-Jul-21 16:21N 56°19' E 007°10'512.7
2018-Jul-21 15:57N 56°14' E 007°05'612.8
2018-Jul-21 15:30N 56°10' E 006°60'2012.9
2018-Jul-21 13:58N 55°53' E 006°41'11514.9
2018-Jul-21 06:16N 54°15' E 004°54'416.6
2018-Jul-21 06:00N 54°12' E 004°50'916.5
2018-Jul-21 05:28N 54°04' E 004°42'816.4
2018-Jul-21 04:59N 53°57' E 004°36'816.2
2018-Jul-21 04:30N 53°51' E 004°28'816.2
2018-Jul-21 04:00N 53°45' E 004°18'816.3
2018-Jul-21 03:30N 53°40' E 004°07'816.5
2018-Jul-21 03:00N 53°35' E 003°56'816.5
2018-Jul-21 02:30N 53°30' E 003°46'816.2
2018-Jul-21 02:00N 53°22' E 003°40'816.1
2018-Jul-21 01:30N 53°15' E 003°35'816.3
2018-Jul-21 01:00N 53°08' E 003°29'816.4
2018-Jul-21 00:30N 53°00' E 003°24'816.7
2018-Jul-21 00:00N 52°53' E 003°17'816.8
2018-Jul-20 23:30N 52°45' E 003°11'917.1
2018-Jul-20 23:00N 52°37' E 003°06'917.4
2018-Jul-20 22:30N 52°29' E 002°59'917.6
2018-Jul-20 22:00N 52°22' E 002°52'917.9
2018-Jul-20 21:30N 52°15' E 002°43'918.1
2018-Jul-20 21:00N 52°07' E 002°34'918.2
2018-Jul-20 20:30N 51°60' E 002°26'918.2
2018-Jul-20 20:00N 51°53' E 002°17'918.2
2018-Jul-20 19:31N 51°46' E 002°08'918.3
2018-Jul-20 19:00N 51°38' E 001°60'918.0
2018-Jul-20 18:30N 51°31' E 001°52'917.7
2018-Jul-20 18:01N 51°23' E 001°45'917.7
2018-Jul-20 17:30N 51°15' E 001°40'917.3
2018-Jul-20 17:00N 51°09' E 001°30'612.3
2018-Jul-20 16:30N 51°07' E 001°20'1 1.1
2018-Jul-20 15:54N 51°07' E 001°19'0 0.0
2018-Jul-20 15:30N 51°07' E 001°19'0 0.0
2018-Jul-20 14:57N 51°07' E 001°19'0 0.0
2018-Jul-20 14:27N 51°07' E 001°19'0 0.0
2018-Jul-20 13:57N 51°07' E 001°19'0 0.0
2018-Jul-20 13:27N 51°07' E 001°19'0 0.0
2018-Jul-20 12:48N 51°07' E 001°19'0 0.0
2018-Jul-20 12:27N 51°07' E 001°19'0 0.0
2018-Jul-20 12:00N 51°07' E 001°19'0 0.0
2018-Jul-20 11:30N 51°07' E 001°19'0 0.0
2018-Jul-20 11:00N 51°07' E 001°19'0 0.0
2018-Jul-20 10:30N 51°07' E 001°19'0 0.0
2018-Jul-20 09:48N 51°07' E 001°19'0 0.0
2018-Jul-20 09:27N 51°07' E 001°19'0 0.0
2018-Jul-20 09:00N 51°07' E 001°19'0 0.0
2018-Jul-20 08:30N 51°07' E 001°19'0 0.0
2018-Jul-20 08:00N 51°07' E 001°19'0 0.0
2018-Jul-20 07:27N 51°07' E 001°19'0 0.0
2018-Jul-20 06:52N 51°07' E 001°19'0 0.0
2018-Jul-20 06:30N 51°07' E 001°19'0 0.0
2018-Jul-20 06:00N 51°07' E 001°19'4 8.1
2018-Jul-20 05:31N 51°08' E 001°25'5 9.3
2018-Jul-20 05:01N 51°09' E 001°32'510.9
2018-Jul-20 04:31N 51°14' E 001°36'510.4
2018-Jul-20 04:01N 51°19' E 001°40'611.1
2018-Jul-20 03:31N 51°24' E 001°44'611.8
2018-Jul-20 03:00N 51°29' E 001°49'713.3
2018-Jul-20 02:31N 51°35' E 001°54'612.0
2018-Jul-20 02:01N 51°40' E 001°59'612.8
2018-Jul-20 01:31N 51°45' E 002°05'714.9
2018-Jul-20 01:01N 51°52' E 002°09'714.6
2018-Jul-20 00:30N 51°59' E 002°11'714.1
2018-Jul-20 00:01N 52°06' E 002°13'713.4
2018-Jul-19 23:30N 52°13' E 002°14'713.2
2018-Jul-19 23:00N 52°20' E 002°16'612.5
2018-Jul-19 22:30N 52°26' E 002°17'612.1
2018-Jul-19 22:00N 52°32' E 002°18'612.0
2018-Jul-19 21:30N 52°38' E 002°20'611.6
2018-Jul-19 21:00N 52°44' E 002°21'611.2
2018-Jul-19 20:30N 52°49' E 002°22'611.1
2018-Jul-19 20:00N 52°55' E 002°24'611.2
2018-Jul-19 19:30N 53°00' E 002°25'611.3
2018-Jul-19 19:01N 53°06' E 002°26'611.4
2018-Jul-19 18:31N 53°11' E 002°27'611.6
2018-Jul-19 18:01N 53°17' E 002°27'612.0
2018-Jul-19 17:30N 53°23' E 002°29'612.3
2018-Jul-19 17:00N 53°29' E 002°30'812.8
2018-Jul-19 16:22N 53°37' E 002°33'512.8
2018-Jul-19 16:00N 53°42' E 002°34'813.2
2018-Jul-19 15:25N 53°49' E 002°36'813.1
2018-Jul-19 14:49N 53°57' E 002°37'1713.0
2018-Jul-19 13:30N 54°14' E 002°42'34016.8
2018-Jul-18 17:18N 59°48' E 004°37'517.9
2018-Jul-18 16:59N 59°53' E 004°41'917.6
2018-Jul-18 16:29N 60°02' E 004°48'816.7
2018-Jul-18 16:00N 60°08' E 004°58'612.6
2018-Jul-18 15:30N 60°10' E 005°09'815.6
2018-Jul-18 15:00N 60°18' E 005°12'611.1
2018-Jul-18 14:29N 60°24' E 005°14'3 2.6
2018-Jul-18 13:30N 60°24' E 005°19'0 0.0
2018-Jul-18 13:00N 60°24' E 005°19'0 0.0
2018-Jul-18 12:30N 60°24' E 005°19'0 0.0
2018-Jul-18 12:00N 60°24' E 005°19'0 0.0
2018-Jul-18 11:30N 60°24' E 005°19'0 0.0
2018-Jul-18 10:30N 60°24' E 005°19'0 0.0
2018-Jul-18 10:00N 60°24' E 005°19'0 0.0
2018-Jul-18 09:30N 60°24' E 005°19'0 0.0
2018-Jul-18 09:00N 60°24' E 005°19'0 0.0
2018-Jul-18 08:30N 60°24' E 005°19'0 0.0
2018-Jul-18 08:00N 60°24' E 005°19'0 0.0
2018-Jul-18 07:30N 60°24' E 005°19'0 0.0
2018-Jul-18 07:00N 60°24' E 005°19'0 0.0
2018-Jul-18 06:30N 60°24' E 005°19'0 0.0
2018-Jul-18 05:57N 60°24' E 005°19'0 0.0
2018-Jul-18 05:30N 60°24' E 005°19'0 0.5
2018-Jul-18 05:00N 60°24' E 005°18'4 8.6
2018-Jul-18 04:30N 60°23' E 005°10'611.6
2018-Jul-18 04:00N 60°27' E 005°01'612.5
2018-Jul-18 03:30N 60°33' E 004°56'612.5
2018-Jul-18 02:59N 60°39' E 004°51'612.5
2018-Jul-18 02:30N 60°44' E 004°44'612.4
2018-Jul-18 02:00N 60°45' E 004°32'612.0
2018-Jul-18 01:30N 60°45' E 004°19'8 5.3
2018-Jul-18 00:01N 60°52' E 004°16'012.6
2018-Jul-18 00:00N 60°52' E 004°17'612.1
2018-Jul-17 23:30N 60°52' E 004°29'816.5
2018-Jul-17 23:00N 60°57' E 004°42'816.8
2018-Jul-17 22:30N 61°02' E 004°56'816.5
2018-Jul-17 22:00N 61°06' E 005°11'816.7
2018-Jul-17 21:30N 61°05' E 005°29'917.5
2018-Jul-17 21:00N 61°08' E 005°45'917.6
2018-Jul-17 20:30N 61°08' E 006°04'917.7
2018-Jul-17 20:00N 61°06' E 006°22'815.5
2018-Jul-17 19:30N 61°10' E 006°36'816.3
2018-Jul-17 19:00N 61°09' E 006°52'816.7
2018-Jul-17 18:30N 61°02' E 007°02'713.3
2018-Jul-17 18:00N 60°56' E 006°54'3 6.9
2018-Jul-17 17:30N 60°53' E 006°51'0 1.0
2018-Jul-17 17:00N 60°54' E 006°52'4 7.3
2018-Jul-17 16:30N 60°57' E 006°56'5 9.4
2018-Jul-17 16:00N 60°58' E 007°05'4 9.0
2018-Jul-17 15:30N 60°54' E 007°10'1 1.6
2018-Jul-17 15:00N 60°54' E 007°09'2 4.1
2018-Jul-17 14:30N 60°52' E 007°08'0 0.4
2018-Jul-17 14:00N 60°52' E 007°08'0 0.1
2018-Jul-17 13:30N 60°52' E 007°08'0 0.1
2018-Jul-17 13:00N 60°52' E 007°08'0 0.0
2018-Jul-17 12:30N 60°52' E 007°08'0 0.1
2018-Jul-17 12:00N 60°52' E 007°08'0 0.0
2018-Jul-17 11:30N 60°52' E 007°08'0 0.0
2018-Jul-17 11:00N 60°52' E 007°08'0 0.0
2018-Jul-17 10:30N 60°52' E 007°08'0 0.0
2018-Jul-17 10:00N 60°52' E 007°08'0 0.0
2018-Jul-17 09:30N 60°52' E 007°08'0 0.0
2018-Jul-17 09:00N 60°52' E 007°08'0 0.0
2018-Jul-17 08:30N 60°52' E 007°08'0 0.0
2018-Jul-17 08:00N 60°52' E 007°08'0 0.0
2018-Jul-17 07:30N 60°52' E 007°08'0 0.0
2018-Jul-17 07:00N 60°52' E 007°08'0 0.0
2018-Jul-17 06:30N 60°52' E 007°08'0 0.0
2018-Jul-17 06:00N 60°52' E 007°08'0 0.0
2018-Jul-17 05:30N 60°52' E 007°08'0 0.0
2018-Jul-17 05:00N 60°52' E 007°08'0 0.6
2018-Jul-17 04:30N 60°52' E 007°08'5 9.2
2018-Jul-17 04:00N 60°57' E 007°08'612.5
2018-Jul-17 03:30N 61°02' E 007°02'714.1
2018-Jul-17 02:58N 61°08' E 006°53'714.4
2018-Jul-17 02:29N 61°11' E 006°39'613.3
2018-Jul-17 02:00N 61°07' E 006°29'714.2
2018-Jul-17 01:30N 61°07' E 006°15'714.7
2018-Jul-17 01:00N 61°08' E 005°60'815.5
2018-Jul-17 00:29N 61°07' E 005°43'1515.0
2018-Jul-16 23:30N 61°05' E 005°13'815.5
2018-Jul-16 23:00N 61°03' E 004°58'816.7
2018-Jul-16 22:30N 60°58' E 004°44'714.5
2018-Jul-16 22:00N 60°51' E 004°38'612.3
2018-Jul-16 21:30N 60°46' E 004°31'816.0
2018-Jul-16 21:00N 60°38' E 004°33'917.3
2018-Jul-16 20:30N 60°30' E 004°37'918.0
2018-Jul-16 20:00N 60°21' E 004°42'917.8
2018-Jul-16 19:30N 60°13' E 004°48'714.0
2018-Jul-16 18:59N 60°09' E 004°59'511.1
2018-Jul-16 18:30N 60°10' E 005°10'814.5
2018-Jul-16 17:59N 60°05' E 005°19'816.6
2018-Jul-16 17:30N 59°57' E 005°26'816.7
2018-Jul-16 17:00N 59°50' E 005°33'611.9
2018-Jul-16 16:30N 59°54' E 005°42'917.0
2018-Jul-16 16:00N 59°60' E 005°53'817.0
2018-Jul-16 15:30N 60°06' E 006°05'2 4.6
2018-Jul-16 15:00N 60°06' E 006°10'511.0
2018-Jul-16 14:30N 60°04' E 006°00'5 1.0
2018-Jul-16 09:36N 59°59' E 005°60'0 0.0
2018-Jul-16 09:06N 59°59' E 005°60'0 0.0
2018-Jul-16 07:39N 59°59' E 005°60'0 0.0
2018-Jul-16 07:24N 59°59' E 005°60'0 0.0
2018-Jul-16 05:20N 59°59' E 005°60'0 0.4
2018-Jul-16 04:46N 59°59' E 005°60'0 0.1
2018-Jul-16 04:30N 59°59' E 006°00'0 0.8
2018-Jul-16 04:00N 59°59' E 005°59'3 5.6
2018-Jul-16 03:30N 59°59' E 005°54'510.8
2018-Jul-16 03:00N 59°56' E 005°46'611.3
2018-Jul-16 02:30N 59°51' E 005°39'510.8
2018-Jul-16 01:59N 59°46' E 005°33'510.9
2018-Jul-16 01:30N 59°42' E 005°26'510.3
2018-Jul-16 01:00N 59°38' E 005°19'510.5
2018-Jul-16 00:30N 59°34' E 005°14'510.4
2018-Jul-16 00:00N 59°29' E 005°10'611.3
2018-Jul-15 23:30N 59°31' E 004°59'4 9.0
2018-Jul-15 23:00N 59°33' E 004°52'4 7.2
2018-Jul-15 22:30N 59°34' E 004°45'4 7.4
2018-Jul-15 21:59N 59°30' E 004°42'5 9.5
2018-Jul-15 21:26N 59°25' E 004°44'4 9.0
2018-Jul-15 21:00N 59°25' E 004°52'510.2
2018-Jul-15 20:30N 59°27' E 005°01'510.6
2018-Jul-15 20:00N 59°27' E 005°11'5 9.9
2018-Jul-15 19:30N 59°23' E 005°18'510.8
2018-Jul-15 19:00N 59°18' E 005°20'816.9
2018-Jul-15 18:30N 59°09' E 005°21'612.5
2018-Jul-15 18:01N 59°09' E 005°34'713.7
2018-Jul-15 17:30N 59°08' E 005°47'714.1
2018-Jul-15 17:00N 59°14' E 005°55'713.5
2018-Jul-15 16:30N 59°19' E 006°03'611.6
2018-Jul-15 16:00N 59°20' E 006°14'0 0.3
2018-Jul-15 15:30N 59°20' E 006°14'3 5.4
2018-Jul-15 15:00N 59°19' E 006°10'2 4.9
2018-Jul-15 14:30N 59°18' E 006°06'713.6
2018-Jul-15 14:01N 59°18' E 006°19'711.8
2018-Jul-15 13:25N 59°19' E 006°32'1 2.3
2018-Jul-15 12:57N 59°19' E 006°30'612.6
2018-Jul-15 12:30N 59°18' E 006°20'713.6
2018-Jul-15 12:01N 59°15' E 006°07'0 0.6
2018-Jul-15 11:30N 59°15' E 006°07'0 0.2
2018-Jul-15 11:00N 59°15' E 006°07'4 8.4
2018-Jul-15 10:30N 59°13' E 005°60'612.0
2018-Jul-15 10:00N 59°09' E 005°53'917.2
2018-Jul-15 09:30N 59°00' E 005°52'815.7
2018-Jul-15 09:00N 58°54' E 006°02'511.0
2018-Jul-15 08:30N 58°58' E 006°10'816.1
2018-Jul-15 08:01N 59°01' E 006°25'714.3
2018-Jul-15 07:30N 59°03' E 006°38'3 5.1
2018-Jul-15 07:00N 59°02' E 006°33'815.5
2018-Jul-15 06:30N 59°01' E 006°19'510.3
2018-Jul-15 06:00N 58°58' E 006°10'510.9
2018-Jul-15 05:30N 58°54' E 006°04'510.8
2018-Jul-15 05:00N 58°58' E 005°57'815.1
2018-Jul-15 04:30N 59°02' E 005°45'612.6
2018-Jul-15 04:00N 59°02' E 005°32'815.3
2018-Jul-15 03:30N 58°55' E 005°32'510.4
2018-Jul-15 03:00N 58°50' E 005°28'4 7.3
2018-Jul-15 02:31N 58°48' E 005°23'510.6
2018-Jul-15 02:00N 58°43' E 005°18'611.4
2018-Jul-15 01:30N 58°37' E 005°16'611.4
2018-Jul-15 01:00N 58°32' E 005°13'611.6
2018-Jul-15 00:31N 58°26' E 005°10'1912.0
2018-Jul-14 22:55N 58°08' E 005°00'31013.9
2018-Jul-14 00:35N 53°09' E 002°31'117.5
2018-Jul-14 00:30N 53°08' E 002°31'917.3
2018-Jul-14 00:00N 52°59' E 002°28'816.9
2018-Jul-13 23:30N 52°51' E 002°27'1016.3
2018-Jul-13 22:55N 52°42' E 002°27'614.7
2018-Jul-13 22:30N 52°36' E 002°25'815.0
2018-Jul-13 21:59N 52°29' E 002°20'714.8
2018-Jul-13 21:30N 52°22' E 002°17'714.6
2018-Jul-13 21:00N 52°14' E 002°16'714.7
2018-Jul-13 20:30N 52°07' E 002°14'714.7
2018-Jul-13 20:00N 51°60' E 002°12'915.1
2018-Jul-13 19:26N 51°51' E 002°09'715.2
2018-Jul-13 19:00N 51°45' E 002°06'815.6
2018-Jul-13 18:30N 51°39' E 001°59'816.1
2018-Jul-13 18:00N 51°32' E 001°52'816.9
2018-Jul-13 17:30N 51°25' E 001°45'816.6
2018-Jul-13 17:00N 51°17' E 001°38'815.6
2018-Jul-13 16:30N 51°10' E 001°33'815.6
2018-Jul-13 15:59N 51°06' E 001°22'2 3.3
2018-Jul-13 15:30N 51°07' E 001°19'0 0.0
2018-Jul-13 15:00N 51°07' E 001°19'0 0.0
2018-Jul-13 13:57N 51°07' E 001°19'0 0.0
2018-Jul-13 13:30N 51°07' E 001°19'0 0.0
2018-Jul-13 13:00N 51°07' E 001°19'0 0.0
2018-Jul-13 12:30N 51°07' E 001°19'0 0.0
2018-Jul-13 12:00N 51°07' E 001°19'0 0.0
2018-Jul-13 11:24N 51°07' E 001°19'0 0.0
2018-Jul-13 10:54N 51°07' E 001°19'0 0.0
2018-Jul-13 10:27N 51°07' E 001°19'0 0.0
2018-Jul-13 09:57N 51°07' E 001°19'0 0.0
2018-Jul-13 09:21N 51°07' E 001°19'0 0.0
2018-Jul-13 08:57N 51°07' E 001°19'0 0.0
2018-Jul-13 08:27N 51°07' E 001°19'0 0.0
2018-Jul-13 07:57N 51°07' E 001°19'0 0.0
2018-Jul-13 07:30N 51°07' E 001°19'0 0.0
2018-Jul-13 07:00N 51°07' E 001°19'0 0.0
2018-Jul-13 06:30N 51°07' E 001°19'0 0.0
2018-Jul-13 05:57N 51°07' E 001°19'0 0.0
2018-Jul-13 05:27N 51°07' E 001°19'0 0.0
2018-Jul-13 05:00N 51°07' E 001°19'3 6.3
2018-Jul-13 04:30N 51°08' E 001°24'5 9.7
2018-Jul-13 04:00N 51°08' E 001°32'4 8.7
2018-Jul-13 03:30N 51°10' E 001°38'4 8.9
2018-Jul-13 03:00N 51°13' E 001°43'4 8.6
2018-Jul-13 02:30N 51°17' E 001°47'4 8.1
2018-Jul-13 02:00N 51°20' E 001°50'4 7.8
2018-Jul-13 01:31N 51°24' E 001°53'4 7.7
2018-Jul-13 01:00N 51°27' E 001°57'4 8.1
2018-Jul-13 00:30N 51°30' E 002°01'4 8.3
2018-Jul-13 00:00N 51°33' E 002°05'  

Dump ship's entire track history